CDT,Max TemperatureF,Mean TemperatureF,Min TemperatureF,Max Dew PointF,MeanDew PointF,Min DewpointF,Max Humidity, Mean Humidity, Min Humidity, Max Sea Level PressureIn, Mean Sea Level PressureIn, Min Sea Level PressureIn, Max VisibilityMiles, Mean VisibilityMiles, Min VisibilityMiles, Max Wind SpeedMPH, Mean Wind SpeedMPH, Max Gust SpeedMPH,PrecipitationIn, CloudCover, Events, WindDirDegrees
2013-3-1,53,40,26,22,17,11,69,44,18,30.35,30.28,30.22,10,10,10,28,12,33,0.00,0,,344
2013-3-2,68,47,26,25,23,21,81,50,18,30.35,30.24,30.07,10,10,10,23,11,26,0.00,1,,274
2013-3-3,78,54,30,28,21,11,78,43,8,30.06,29.75,29.55,10,10,10,28,13,33,0.00,0,,238
2013-3-4,68,51,34,32,27,23,55,38,20,30.19,29.75,29.59,10,9,2,40,18,50,T,2,Snow,346
2013-3-5,50,35,20,28,15,9,75,47,19,30.46,30.33,30.21,10,10,2,21,9,25,T,1,Snow,275
2013-3-6,64,45,26,21,19,17,63,41,19,30.28,30.09,29.92,10,8,2,39,19,46,0.00,0,,190
2013-3-7,82,56,29,26,22,19,63,37,10,29.94,29.88,29.80,10,10,9,29,14,36,0.00,0,,213
2013-3-8,78,62,46,44,29,20,86,50,13,29.92,29.74,29.62,10,10,7,36,15,49,0.05,2,,204
2013-3-9,60,47,34,45,29,10,86,50,14,29.90,29.69,29.49,10,8,2,38,23,52,T,4,Snow,269
2013-3-10,42,33,23,28,15,1,75,47,18,30.16,30.04,29.86,10,10,9,43,23,53,T,1,,342
2013-3-11,67,46,24,22,16,10,68,40,12,30.14,29.98,29.84,10,10,10,21,9,24,0.00,0,,233
2013-3-12,53,43,33,29,26,22,82,59,35,30.33,30.21,29.93,10,10,10,32,13,41,0.00,0,,40
2013-3-13,70,48,25,30,23,19,85,50,15,30.34,30.26,30.16,10,10,10,23,10,28,0.00,0,,190
2013-3-14,76,55,34,27,25,22,59,36,13,30.19,30.14,30.09,10,10,10,24,9,33,0.00,0,,7
2013-3-15,84,63,41,28,21,10,55,31,6,30.09,29.90,29.72,10,10,8,14,8,17,0.00,0,,270
2013-3-16,61,51,40,35,28,18,65,45,24,29.89,29.79,29.65,10,10,10,35,16,39,0.00,0,,25
2013-3-17,72,52,31,30,25,16,72,43,14,29.88,29.68,29.47,10,9,1,38,13,47,0.00,2,,230
2013-3-18,58,45,32,27,18,9,54,36,17,30.01,29.88,29.64,10,10,10,32,11,39,0.00,0,,68
2013-3-19,54,41,28,27,20,13,63,41,19,30.26,30.05,29.90,10,10,10,25,9,30,0.00,0,,20
2013-3-20,64,44,24,27,18,10,60,40,19,30.34,30.13,29.77,10,10,10,33,14,41,0.00,0,,215
2013-3-21,79,60,41,32,28,15,67,39,10,29.73,29.53,29.33,10,10,5,35,12,43,0.00,0,,302
2013-3-22,58,45,31,32,29,26,85,58,30,29.88,29.76,29.67,10,8,4,23,12,28,0.00,0,,78
2013-3-23,50,35,20,33,27,14,89,70,50,30.18,29.81,29.60,10,6,0,37,17,46,0.01,4,Fog-Snow-Thunderstorm,15
2013-3-24,38,26,14,24,14,6,78,59,40,30.28,30.20,30.06,10,10,10,18,8,23,0.00,2,,10
2013-3-25,43,33,22,24,18,15,78,56,33,30.38,30.32,30.26,10,10,10,14,6,21,0.00,4,,360
2013-3-26,66,42,17,19,14,11,81,47,13,30.38,30.17,29.95,10,10,10,33,16,39,0.00,0,,194
2013-3-27,70,52,34,25,20,14,44,30,15,30.02,29.95,29.88,10,10,10,23,11,26,0.00,0,,57
2013-3-28,72,54,36,37,29,25,64,42,19,30.14,30.02,29.95,10,10,10,15,9,18,0.00,0,,36
2013-3-29,75,59,42,45,40,35,82,54,25,30.09,29.99,29.92,10,10,10,13,7,15,0.00,0,,45
2013-3-30,78,61,43,44,33,24,86,51,15,30.00,29.93,29.85,10,10,6,39,10,46,0.00,0,,3
2013-3-31,68,57,46,43,34,25,82,52,22,30.08,29.99,29.91,10,10,5,39,12,47,T,3,,78